createdAt,value
2022-09-14T00:01:43.865Z,96.07
2022-09-14T00:04:11.939Z,93.90
2022-09-14T00:06:38.529Z,90.15
2022-09-14T00:09:07.001Z,107.60
2022-09-14T00:11:36.283Z,104.60
2022-09-14T00:14:03.434Z,105.13
2022-09-14T00:16:31.512Z,101.85
2022-09-14T00:19:05.678Z,16.98
2022-09-14T00:21:36.675Z,33.03
2022-09-14T00:24:04.130Z,18.60
2022-09-14T00:26:30.651Z,32.13
2022-09-14T00:28:58.135Z,28.77
2022-09-14T00:31:25.773Z,17.98
2022-09-14T00:33:52.726Z,14.70
2022-09-14T00:36:22.274Z,30.98
2022-09-14T00:38:49.191Z,16.80
2022-09-14T00:41:17.254Z,19.25
2022-09-14T00:43:59.016Z,26.15
2022-09-14T00:46:26.452Z,21.48
2022-09-14T00:48:53.452Z,26.05
2022-09-14T00:51:21.239Z,21.27
2022-09-14T00:53:48.436Z,18.88
2022-09-14T00:56:15.051Z,35.53
2022-09-14T00:58:43.019Z,16.95
2022-09-14T01:01:10.412Z,20.73
2022-09-14T01:03:37.022Z,31.13
2022-09-14T01:06:03.476Z,18.98
2022-09-14T01:08:30.295Z,32.85
2022-09-14T01:11:11.681Z,28.38
2022-09-14T01:13:38.151Z,19.60
2022-09-14T01:16:14.520Z,18.58
2022-09-14T01:18:44.658Z,15.60
2022-09-14T01:21:14.371Z,17.33
2022-09-14T01:23:55.921Z,30.05
2022-09-14T01:26:22.414Z,34.45
2022-09-14T01:28:48.866Z,24.08
2022-09-14T01:31:18.298Z,8.63
2022-09-14T01:34:07.863Z,11.88
2022-09-14T01:36:36.454Z,20.45
2022-09-14T01:39:03.423Z,23.95
2022-09-14T01:41:31.784Z,32.72
2022-09-14T01:44:01.835Z,18.05
2022-09-14T01:46:35.933Z,27.27
2022-09-14T01:49:02.425Z,12.80
2022-09-14T01:51:31.598Z,25.33
2022-09-14T01:54:05.366Z,33.65
2022-09-14T01:56:37.513Z,32.83
2022-09-14T01:59:07.035Z,17.33
2022-09-14T02:01:52.350Z,34.25
2022-09-14T02:04:22.690Z,20.35
2022-09-14T02:06:49.337Z,36.97
2022-09-14T02:09:20.096Z,16.30
2022-09-14T02:11:46.926Z,11.63
2022-09-14T02:14:13.450Z,24.20
2022-09-14T02:16:43.467Z,20.10
2022-09-14T02:19:10.430Z,30.83
2022-09-14T02:21:38.385Z,22.35
2022-09-14T02:24:05.413Z,33.25
2022-09-14T02:26:32.313Z,30.88
2022-09-14T02:28:59.171Z,22.92
2022-09-14T02:31:30.326Z,19.05
2022-09-14T02:33:56.767Z,21.25
2022-09-14T02:36:28.546Z,16.90
2022-09-14T02:39:11.928Z,17.75
2022-09-14T02:41:39.759Z,32.47
2022-09-14T02:44:29.275Z,20.13
2022-09-14T02:47:01.456Z,23.02
2022-09-14T02:49:46.450Z,17.75
2022-09-14T02:52:18.362Z,10.85
2022-09-14T02:55:00.064Z,8.75
2022-09-14T02:57:26.653Z,14.27
2022-09-14T02:59:53.760Z,17.20
2022-09-14T03:02:20.422Z,20.70
2022-09-14T03:04:46.954Z,9.10
2022-09-14T03:07:13.370Z,22.02
2022-09-14T03:09:40.477Z,16.60
2022-09-14T03:12:06.905Z,27.52
2022-09-14T03:14:33.418Z,31.77
2022-09-14T03:16:59.902Z,18.30
2022-09-14T03:19:26.402Z,22.98
2022-09-14T03:21:52.906Z,15.20
2022-09-14T03:24:19.366Z,17.40
2022-09-14T03:26:47.316Z,22.23
2022-09-14T03:29:13.738Z,16.60
2022-09-14T03:31:40.326Z,15.25
2022-09-14T03:34:06.887Z,42.65
2022-09-14T03:36:33.555Z,24.00
2022-09-14T03:39:01.735Z,16.98
2022-09-14T03:41:28.738Z,27.20
2022-09-14T03:43:55.225Z,23.98
2022-09-14T03:46:22.557Z,21.33
2022-09-14T03:48:49.172Z,25.55
2022-09-14T03:51:15.746Z,28.10
2022-09-14T03:53:43.166Z,16.33
2022-09-14T03:56:10.823Z,37.00
2022-09-14T03:58:37.664Z,28.17
2022-09-14T04:01:05.458Z,50.97
2022-09-14T04:03:32.219Z,30.08
2022-09-14T04:05:59.323Z,18.58
2022-09-14T04:08:25.839Z,36.17
2022-09-14T04:10:52.354Z,24.08
2022-09-14T04:13:18.859Z,11.73
2022-09-14T04:15:55.274Z,13.48
2022-09-14T04:18:21.729Z,24.80
2022-09-14T04:20:53.935Z,22.00
2022-09-14T04:23:20.367Z,16.98
2022-09-14T04:25:46.854Z,21.50
2022-09-14T04:28:20.867Z,20.65
2022-09-14T04:31:00.720Z,31.58
2022-09-14T04:33:29.656Z,31.40
2022-09-14T04:35:57.765Z,29.58
2022-09-14T04:38:24.402Z,17.08
2022-09-14T04:40:50.882Z,12.48
2022-09-14T04:43:17.350Z,26.92
2022-09-14T04:45:44.325Z,21.45
2022-09-14T04:48:10.729Z,18.02
2022-09-14T04:50:37.264Z,40.47
2022-09-14T04:53:03.740Z,24.45
2022-09-14T04:55:30.157Z,27.30
2022-09-14T04:57:56.609Z,35.28
2022-09-14T05:00:23.314Z,42.03
2022-09-14T05:02:49.828Z,14.80
2022-09-14T05:05:16.319Z,13.77
2022-09-14T05:07:42.791Z,33.40
2022-09-14T05:10:09.345Z,37.17
2022-09-14T05:12:35.831Z,18.98
2022-09-14T05:15:02.255Z,38.72
2022-09-14T05:17:28.720Z,24.40
2022-09-14T05:19:55.136Z,21.45
2022-09-14T05:22:22.608Z,40.15
2022-09-14T05:24:49.038Z,17.92
2022-09-14T05:27:15.523Z,17.08
2022-09-14T05:29:41.975Z,31.75
2022-09-14T05:32:08.408Z,16.52
2022-09-14T05:34:34.926Z,23.00
2022-09-14T05:37:01.395Z,35.92
2022-09-14T05:39:27.930Z,15.85
2022-09-14T05:41:54.361Z,20.80
2022-09-14T05:44:20.890Z,31.35
2022-09-14T05:46:47.391Z,30.40
2022-09-14T05:49:13.850Z,14.13
2022-09-14T05:51:40.325Z,29.52
2022-09-14T05:54:11.432Z,31.73
2022-09-14T05:56:38.215Z,30.85
2022-09-14T05:59:04.668Z,46.85
2022-09-14T06:01:32.993Z,20.25
2022-09-14T06:04:00.827Z,22.60
2022-09-14T06:06:27.264Z,35.80
2022-09-14T06:08:55.128Z,31.27
2022-09-14T06:11:26.015Z,19.92
2022-09-14T06:13:54.264Z,28.95
2022-09-14T06:16:21.278Z,36.47
2022-09-14T06:18:48.397Z,36.33
2022-09-14T06:21:16.667Z,28.20
2022-09-14T06:23:43.835Z,23.63
2022-09-14T06:26:10.541Z,15.70
2022-09-14T06:28:37.020Z,43.80
2022-09-14T06:31:04.537Z,20.85
2022-09-14T06:33:31.523Z,19.20
2022-09-14T06:35:59.085Z,35.67
2022-09-14T06:38:26.214Z,24.98
2022-09-14T06:40:57.022Z,19.25
2022-09-14T06:43:27.470Z,24.73
2022-09-14T06:45:56.987Z,36.20
2022-09-14T06:48:23.616Z,32.78
2022-09-14T06:50:50.045Z,41.28
2022-09-14T06:53:16.493Z,24.45
2022-09-14T06:55:44.788Z,14.80
2022-09-14T06:58:11.541Z,30.98
2022-09-14T07:00:38.104Z,26.95
2022-09-14T07:03:04.774Z,23.67
2022-09-14T07:05:31.256Z,32.83
2022-09-14T07:07:57.865Z,19.10
2022-09-14T07:10:28.097Z,33.03
2022-09-14T07:12:55.321Z,21.02
2022-09-14T07:15:22.021Z,18.77
2022-09-14T07:17:48.491Z,12.00
2022-09-14T07:32:05.289Z,16.52
2022-09-14T07:34:31.809Z,24.38
2022-09-14T07:36:58.274Z,50.78
2022-09-14T07:39:24.731Z,11.07
2022-09-14T07:41:51.264Z,22.50
2022-09-14T07:44:18.111Z,39.88
2022-09-14T07:46:45.353Z,27.33
2022-09-14T07:49:12.060Z,8.32
2022-09-14T07:51:39.009Z,47.63
2022-09-14T07:54:06.442Z,14.50
2022-09-14T07:56:32.997Z,21.77
2022-09-14T07:59:23.877Z,27.40
2022-09-14T08:01:47.017Z,71.97
2022-09-14T08:04:13.677Z,52.83
2022-09-14T08:06:40.627Z,30.92
